Time;durP1;ratioP1;P1;durP2;ratioP2;P2;SDS_P1;SDS_P2;PMS_P1;PMS_P2;Temp;Humidity;BMP_temperature;BMP_pressure;BME280_temperature;BME280_humidity;BME280_pressure;Samples;Min_cycle;Max_cycle;Signal;HPM_P1;HPM_P2
2021/06/13 00:02:10;;;;;;;15.48;3.97;;;12.70;99.90;;;;;;5047477;28;20543;-70
2021/06/13 00:04:36;;;;;;;24.15;5.90;;;12.70;99.90;;;;;;5047336;28;20488;-69
2021/06/13 00:07:02;;;;;;;12.48;3.95;;;12.70;99.90;;;;;;5040322;28;20116;-69
2021/06/13 00:09:27;;;;;;;18.35;4.78;;;12.70;99.90;;;;;;5027307;28;20026;-69
2021/06/13 00:11:53;;;;;;;19.60;4.25;;;12.60;99.90;;;;;;5027778;28;20049;-69
2021/06/13 00:14:21;;;;;;;12.48;3.70;;;12.60;99.90;;;;;;5025997;28;20450;-69
2021/06/13 00:16:47;;;;;;;18.50;4.88;;;12.50;99.90;;;;;;5027778;28;20083;-69
2021/06/13 00:19:12;;;;;;;17.85;4.90;;;12.50;99.90;;;;;;5027804;28;20042;-69
2021/06/13 00:21:38;;;;;;;20.40;4.50;;;12.50;99.90;;;;;;5026252;28;20045;-69
2021/06/13 00:24:05;;;;;;;13.70;4.95;;;12.50;99.90;;;;;;5028237;28;20053;-69
2021/06/13 00:26:31;;;;;;;9.98;4.10;;;12.50;99.90;;;;;;5022145;28;20061;-69
2021/06/13 00:28:56;;;;;;;16.88;4.55;;;12.50;99.90;;;;;;5027770;28;20064;-68
2021/06/13 00:31:22;;;;;;;15.20;5.00;;;12.50;99.90;;;;;;5025687;28;20037;-69
2021/06/13 00:33:48;;;;;;;14.15;4.32;;;12.50;99.90;;;;;;5026239;28;20034;-69
2021/06/13 00:36:14;;;;;;;17.33;4.47;;;12.50;99.90;;;;;;5028598;28;20034;-69
2021/06/13 00:38:39;;;;;;;19.67;5.75;;;12.40;99.90;;;;;;5029198;28;20068;-69
2021/06/13 00:41:07;;;;;;;16.60;4.93;;;12.50;99.90;;;;;;5030410;28;20656;-69
2021/06/13 00:43:32;;;;;;;14.48;4.10;;;12.50;99.90;;;;;;5035658;28;20042;-69
2021/06/13 00:45:58;;;;;;;18.33;4.78;;;12.40;99.90;;;;;;5038861;28;20160;-69
2021/06/13 00:48:24;;;;;;;17.92;4.45;;;12.40;99.90;;;;;;5041089;28;20036;-69
2021/06/13 00:50:51;;;;;;;16.30;4.60;;;12.40;99.90;;;;;;5042145;28;20128;-68
2021/06/13 00:53:18;;;;;;;19.15;5.25;;;12.40;99.90;;;;;;5040810;28;20029;-69
2021/06/13 00:55:44;;;;;;;16.30;5.03;;;12.40;99.90;;;;;;5026826;28;20043;-69
2021/06/13 00:58:10;;;;;;;14.93;5.18;;;12.40;99.90;;;;;;5027508;28;20048;-69
2021/06/13 01:00:37;;;;;;;11.23;4.30;;;12.30;99.90;;;;;;5026065;28;20413;-69
2021/06/13 01:03:04;;;;;;;14.18;4.75;;;12.30;99.90;;;;;;5027060;28;20025;-69
2021/06/13 01:05:31;;;;;;;17.35;5.10;;;12.30;99.90;;;;;;5025487;28;20554;-70
2021/06/13 01:08:44;;;;;;;13.77;5.22;;;12.30;99.90;;;;;;5027475;28;20091;-69
2021/06/13 01:11:19;;;;;;;15.35;4.40;;;12.20;99.90;;;;;;5029388;28;20041;-68
2021/06/13 01:13:56;;;;;;;15.95;4.25;;;12.20;99.90;;;;;;5025858;28;20038;-69
2021/06/13 01:16:37;;;;;;;16.55;4.30;;;12.20;99.90;;;;;;5023994;28;20033;-69
2021/06/13 01:19:14;;;;;;;;;;;12.20;99.90;;;;;;5026822;28;20053;-69
2021/06/13 01:22:08;;;;;;;14.18;4.55;;;12.20;99.90;;;;;;5018102;28;19928;-70
2021/06/13 01:24:55;;;;;;;14.18;5.32;;;12.20;99.90;;;;;;5025962;28;20057;-69
2021/06/13 01:27:43;;;;;;;13.50;4.50;;;12.20;99.90;;;;;;5038464;28;20045;-69
2021/06/13 01:30:10;;;;;;;10.70;3.80;;;12.10;99.90;;;;;;5026671;28;20099;-69
2021/06/13 01:32:35;;;;;;;13.57;4.78;;;12.10;99.90;;;;;;5026226;28;20112;-69
2021/06/13 01:35:08;;;;;;;22.27;4.93;;;12.10;99.90;;;;;;5026678;28;20748;-68
2021/06/13 01:37:37;;;;;;;11.35;4.40;;;12.00;99.90;;;;;;5028271;28;20037;-69
2021/06/13 01:40:07;;;;;;;22.88;5.55;;;12.00;99.90;;;;;;5030761;28;20040;-69
2021/06/13 01:42:35;;;;;;;17.63;5.15;;;12.00;99.90;;;;;;5028613;28;20128;-69
2021/06/13 01:45:05;;;;;;;14.68;4.38;;;12.00;99.90;;;;;;5030409;28;20659;-69
2021/06/13 01:47:34;;;;;;;11.48;4.30;;;12.00;99.90;;;;;;5030344;28;20029;-69
2021/06/13 01:50:00;;;;;;;14.15;5.43;;;12.00;99.90;;;;;;5030825;28;20401;-68
2021/06/13 01:52:28;;;;;;;12.45;4.47;;;11.90;99.90;;;;;;5028492;28;20112;-69
2021/06/13 01:54:55;;;;;;;17.80;4.85;;;12.00;99.90;;;;;;5029227;28;20115;-69
2021/06/13 01:57:22;;;;;;;18.50;5.25;;;11.90;99.90;;;;;;5030219;28;20040;-69
2021/06/13 01:59:48;;;;;;;14.30;4.50;;;11.90;99.90;;;;;;5029171;28;20068;-68
2021/06/13 02:02:15;;;;;;;15.75;5.20;;;11.90;99.90;;;;;;5029667;28;20061;-69
2021/06/13 02:04:43;;;;;;;16.70;4.03;;;11.90;99.90;;;;;;5030021;28;20032;-68
2021/06/13 02:07:09;;;;;;;17.70;4.32;;;11.90;99.90;;;;;;5030272;28;20494;-69
2021/06/13 02:09:37;;;;;;;12.45;4.22;;;11.90;99.90;;;;;;5028360;28;20029;-69
2021/06/13 02:12:05;;;;;;;19.35;5.22;;;11.80;99.90;;;;;;5029657;28;20040;-69
2021/06/13 02:14:33;;;;;;;16.67;4.78;;;11.80;99.90;;;;;;5029859;28;20065;-69
2021/06/13 02:17:00;;;;;;;17.05;4.32;;;11.70;99.90;;;;;;5030405;28;20038;-69
2021/06/13 02:19:27;;;;;;;14.50;4.20;;;11.70;99.90;;;;;;5032912;28;20041;-69
2021/06/13 02:21:57;;;;;;;17.75;4.78;;;11.60;99.90;;;;;;5039471;28;20033;-70
2021/06/13 02:24:26;;;;;;;12.68;4.40;;;11.60;99.90;;;;;;5037024;28;20485;-70
2021/06/13 02:26:53;;;;;;;13.18;4.57;;;11.60;99.90;;;;;;5028965;28;20033;-70
2021/06/13 02:29:19;;;;;;;16.25;4.72;;;11.60;99.90;;;;;;5024521;28;20096;-68
2021/06/13 02:31:47;;;;;;;12.35;4.13;;;11.60;99.90;;;;;;5029412;28;20037;-69
2021/06/13 02:34:18;;;;;;;19.20;5.38;;;11.60;99.90;;;;;;5030254;28;20033;-69
2021/06/13 02:36:46;;;;;;;14.85;4.68;;;11.50;99.90;;;;;;5027930;28;20033;-69
2021/06/13 02:39:11;;;;;;;13.05;4.40;;;11.60;99.90;;;;;;5029580;28;20103;-68
2021/06/13 02:41:37;;;;;;;12.48;5.28;;;11.60;99.90;;;;;;5028735;28;20041;-69
2021/06/13 02:44:03;;;;;;;9.80;4.03;;;11.50;99.90;;;;;;5029972;28;20031;-69
2021/06/13 02:46:29;;;;;;;12.23;4.80;;;11.50;99.90;;;;;;5028810;28;20042;-69
2021/06/13 02:48:55;;;;;;;11.98;4.40;;;11.40;99.90;;;;;;5027409;28;20087;-68
2021/06/13 02:51:27;;;;;;;12.90;4.25;;;11.40;99.90;;;;;;5029059;28;20033;-69
2021/06/13 02:53:56;;;;;;;12.57;4.18;;;11.40;99.90;;;;;;5029581;28;20040;-68
2021/06/13 02:56:45;;;;;;;10.80;4.32;;;11.40;99.90;;;;;;5029330;28;20041;-69
2021/06/13 02:59:31;;;;;;;15.73;4.95;;;11.40;99.90;;;;;;5024509;28;20480;-69
2021/06/13 03:01:59;;;;;;;13.50;5.25;;;11.40;99.90;;;;;;5027043;28;20045;-69
2021/06/13 03:04:24;;;;;;;12.23;4.28;;;11.40;99.90;;;;;;5029173;28;20112;-68
2021/06/13 03:06:56;;;;;;;13.40;4.25;;;11.40;99.90;;;;;;5028705;28;20141;-69
2021/06/13 03:09:23;;;;;;;12.07;4.47;;;11.40;99.90;;;;;;5029372;28;20140;-69
2021/06/13 03:11:49;;;;;;;13.85;4.32;;;11.40;99.90;;;;;;5028054;28;20029;-71
2021/06/13 03:14:17;;;;;;;13.70;5.60;;;11.40;99.90;;;;;;5027739;28;20042;-69
2021/06/13 03:16:44;;;;;;;11.32;4.30;;;11.30;99.90;;;;;;5028837;28;20041;-68
2021/06/13 03:19:11;;;;;;;16.65;4.63;;;11.30;99.90;;;;;;5028322;28;20037;-69
2021/06/13 03:21:38;;;;;;;10.55;4.22;;;11.30;99.90;;;;;;5027293;28;20043;-69
2021/06/13 03:24:05;;;;;;;12.35;4.13;;;11.30;99.90;;;;;;5028438;28;20039;-69
2021/06/13 03:26:31;;;;;;;14.25;4.25;;;11.30;99.90;;;;;;5029051;28;20088;-69
2021/06/13 03:29:00;;;;;;;17.92;4.90;;;11.30;99.90;;;;;;5028434;28;20037;-69
2021/06/13 03:31:26;;;;;;;14.77;4.75;;;11.20;99.90;;;;;;5028740;28;20509;-69
2021/06/13 03:33:53;;;;;;;11.10;4.38;;;11.30;99.90;;;;;;5028892;28;20036;-68
2021/06/13 03:36:21;;;;;;;13.93;4.30;;;11.20;99.90;;;;;;5028698;28;20034;-69
2021/06/13 03:38:49;;;;;;;12.65;4.45;;;11.20;99.90;;;;;;5027198;28;20508;-69
2021/06/13 03:41:17;;;;;;;14.20;4.90;;;11.30;99.90;;;;;;5027673;28;20040;-69
2021/06/13 03:43:43;;;;;;;16.63;4.55;;;11.30;99.90;;;;;;5028465;28;20029;-69
2021/06/13 03:46:10;;;;;;;19.10;5.13;;;11.30;99.90;;;;;;5028250;28;20128;-69
2021/06/13 03:48:36;;;;;;;16.67;4.28;;;11.30;99.90;;;;;;5028179;28;20033;-69
2021/06/13 03:51:03;;;;;;;12.57;5.10;;;11.30;99.90;;;;;;5027421;28;20040;-69
2021/06/13 03:53:29;;;;;;;15.63;4.90;;;11.40;99.90;;;;;;5027199;28;20098;-69
2021/06/13 03:56:01;;;;;;;16.27;5.22;;;11.40;99.90;;;;;;5028517;28;20036;-69
2021/06/13 03:58:27;;;;;;;11.30;4.00;;;11.40;99.90;;;;;;5026532;28;20047;-69
2021/06/13 04:00:54;;;;;;;15.25;5.72;;;11.30;99.90;;;;;;5026854;28;20037;-69
2021/06/13 04:03:21;;;;;;;13.65;4.40;;;11.40;99.90;;;;;;5027764;28;20509;-69
2021/06/13 04:05:48;;;;;;;16.95;4.35;;;11.40;99.90;;;;;;5028476;28;20033;-69
2021/06/13 04:08:15;;;;;;;13.90;4.72;;;11.40;99.90;;;;;;5027405;28;20669;-70
2021/06/13 04:10:42;;;;;;;11.27;4.32;;;11.50;99.90;;;;;;5026695;28;20044;-69
2021/06/13 04:13:10;;;;;;;14.73;4.75;;;11.50;99.90;;;;;;5027525;28;20049;-69
2021/06/13 04:15:36;;;;;;;12.45;4.10;;;11.60;99.90;;;;;;5028537;28;20034;-69
2021/06/13 04:18:02;;;;;;;15.85;3.72;;;11.60;99.90;;;;;;5027812;28;20037;-67
2021/06/13 04:20:27;;;;;;;19.33;6.05;;;11.60;99.90;;;;;;5028499;28;20115;-67
2021/06/13 04:22:54;;;;;;;15.10;4.75;;;11.60;99.90;;;;;;5030568;28;20035;-67
2021/06/13 04:25:20;;;;;;;13.13;4.55;;;11.60;99.90;;;;;;5035064;28;20085;-67
2021/06/13 04:27:47;;;;;;;11.98;4.38;;;11.70;99.90;;;;;;5041114;28;20039;-69
2021/06/13 04:30:13;;;;;;;12.52;4.22;;;11.70;99.90;;;;;;5043117;28;20029;-70
2021/06/13 04:32:38;;;;;;;13.18;4.72;;;11.70;99.90;;;;;;5033457;28;20079;-69
2021/06/13 04:35:04;;;;;;;13.13;4.20;;;11.70;99.90;;;;;;5028178;28;20033;-69
2021/06/13 04:37:30;;;;;;;15.77;5.30;;;11.80;99.90;;;;;;5027049;28;20039;-69
2021/06/13 04:39:56;;;;;;;11.65;4.63;;;11.80;99.90;;;;;;5027180;28;20512;-69
2021/06/13 04:42:22;;;;;;;13.25;4.35;;;11.90;99.90;;;;;;5026283;28;20034;-70
2021/06/13 04:44:47;;;;;;;18.10;4.07;;;11.90;99.90;;;;;;5025680;28;20026;-69
2021/06/13 04:47:13;;;;;;;15.05;4.32;;;11.90;99.90;;;;;;5026547;28;20033;-70
2021/06/13 04:49:41;;;;;;;10.18;4.50;;;12.00;99.90;;;;;;5026877;28;20060;-69
2021/06/13 04:52:08;;;;;;;11.95;3.80;;;12.00;99.90;;;;;;5026697;28;20034;-69
2021/06/13 04:55:10;;;;;;;16.95;3.88;;;12.10;99.90;;;;;;5026416;28;20033;-69
2021/06/13 04:57:36;;;;;;;10.73;3.50;;;12.20;99.90;;;;;;5024950;28;20486;-69
2021/06/13 05:00:03;;;;;;;8.13;3.67;;;12.30;99.90;;;;;;5026837;28;20041;-69
2021/06/13 05:02:29;;;;;;;13.82;3.22;;;12.30;99.90;;;;;;5025883;28;20030;-70
2021/06/13 05:04:55;;;;;;;9.85;3.28;;;12.30;99.90;;;;;;5025214;28;20037;-69
2021/06/13 05:07:22;;;;;;;17.38;3.75;;;12.40;99.90;;;;;;5024937;28;20037;-70
2021/06/13 05:09:48;;;;;;;13.77;3.35;;;12.40;99.90;;;;;;5026812;28;20422;-69
2021/06/13 05:12:13;;;;;;;11.98;3.83;;;12.50;99.90;;;;;;5026247;28;20056;-69
2021/06/13 05:14:39;;;;;;;18.73;3.90;;;12.60;99.90;;;;;;5026248;28;20163;-69
2021/06/13 05:17:05;;;;;;;15.23;3.88;;;12.60;99.90;;;;;;5026989;28;20021;-69
2021/06/13 05:19:31;;;;;;;16.17;4.38;;;12.70;99.90;;;;;;5026111;28;20132;-69
2021/06/13 05:21:56;;;;;;;12.18;3.90;;;12.70;99.90;;;;;;5025074;28;20194;-68
2021/06/13 05:24:22;;;;;;;9.45;3.42;;;12.80;99.90;;;;;;5026203;28;20040;-70
2021/06/13 05:26:47;;;;;;;10.05;3.42;;;12.90;99.90;;;;;;5020001;28;20044;-69
2021/06/13 05:29:13;;;;;;;12.30;3.75;;;13.00;99.90;;;;;;5026354;28;20033;-69
2021/06/13 05:31:39;;;;;;;13.35;3.95;;;13.20;99.90;;;;;;5025505;28;20041;-70
2021/06/13 05:34:04;;;;;;;12.88;3.58;;;13.60;99.90;;;;;;5026821;28;20088;-69
2021/06/13 05:36:30;;;;;;;8.25;3.22;;;13.90;99.90;;;;;;5025983;28;20041;-70
2021/06/13 05:38:55;;;;;;;6.80;2.70;;;14.30;99.90;;;;;;5025272;28;20104;-69
2021/06/13 05:41:21;;;;;;;8.52;2.85;;;14.50;99.90;;;;;;5029782;28;20042;-69
2021/06/13 05:43:47;;;;;;;13.40;3.70;;;14.80;99.90;;;;;;5029332;28;20030;-70
2021/06/13 05:46:13;;;;;;;13.18;3.40;;;15.20;99.90;;;;;;5029374;28;20038;-69
2021/06/13 05:48:38;;;;;;;9.98;3.45;;;15.40;99.90;;;;;;5025721;28;20026;-70
2021/06/13 05:51:05;;;;;;;9.18;2.67;;;15.60;99.90;;;;;;5025914;28;20080;-69
2021/06/13 05:53:31;;;;;;;15.88;2.80;;;15.70;99.90;;;;;;5024085;28;20037;-70
2021/06/13 05:55:56;;;;;;;11.45;2.47;;;15.90;99.90;;;;;;5025209;28;20043;-70
2021/06/13 05:58:22;;;;;;;12.80;2.22;;;16.10;99.90;;;;;;5026339;28;20061;-69
2021/06/13 06:00:48;;;;;;;16.33;2.95;;;16.20;99.90;;;;;;5025239;28;20566;-70
2021/06/13 06:03:13;;;;;;;9.40;3.25;;;16.30;99.90;;;;;;5026305;28;20041;-70
2021/06/13 06:05:39;;;;;;;12.70;2.17;;;16.60;99.90;;;;;;5025496;28;20037;-70
2021/06/13 06:08:05;;;;;;;9.68;2.97;;;16.70;99.90;;;;;;5023770;28;20498;-70
2021/06/13 06:10:32;;;;;;;10.95;2.22;;;17.00;99.90;;;;;;5036851;28;20032;-70
2021/06/13 06:13:04;;;;;;;7.55;2.42;;;17.20;99.90;;;;;;5025504;28;20546;-70
2021/06/13 06:15:37;;;;;;;7.07;2.15;;;17.30;99.90;;;;;;5037074;28;20033;-68
2021/06/13 06:18:03;;;;;;;5.38;1.77;;;17.50;99.90;;;;;;5026905;28;20547;-68
2021/06/13 06:20:31;;;;;;;11.82;2.20;;;17.70;99.90;;;;;;5024628;28;20401;-73
2021/06/13 06:22:57;;;;;;;7.95;1.85;;;17.90;99.90;;;;;;5049454;28;20032;-68
2021/06/13 06:25:23;;;;;;;6.00;1.85;;;18.10;99.90;;;;;;5029229;28;20120;-67
2021/06/13 06:27:50;;;;;;;10.55;2.35;;;18.40;99.90;;;;;;5025003;28;20551;-69
2021/06/13 06:30:17;;;;;;;5.55;1.83;;;18.70;99.90;;;;;;5027385;28;20033;-69
2021/06/13 06:32:43;;;;;;;5.57;1.50;;;18.90;99.90;;;;;;5026073;28;20365;-70
2021/06/13 06:35:10;;;;;;;7.25;2.63;;;19.20;99.90;;;;;;5028552;28;20631;-69
2021/06/13 06:37:38;;;;;;;10.88;2.65;;;19.50;99.90;;;;;;5028233;28;20156;-69
2021/06/13 06:40:05;;;;;;;8.15;2.00;;;19.90;99.90;;;;;;5027327;28;20041;-69
2021/06/13 06:42:32;;;;;;;6.32;1.90;;;20.40;99.90;;;;;;5027355;28;20030;-69
2021/06/13 06:44:58;;;;;;;7.60;2.20;;;21.00;99.70;;;;;;5026443;28;20505;-70
2021/06/13 06:47:23;;;;;;;8.98;2.30;;;22.10;97.00;;;;;;5027977;28;20128;-69
2021/06/13 06:49:49;;;;;;;8.13;2.28;;;23.30;94.50;;;;;;5028451;28;20033;-70
2021/06/13 06:52:15;;;;;;;7.93;2.28;;;24.60;89.10;;;;;;5028141;28;20052;-69
2021/06/13 06:54:40;;;;;;;7.07;2.42;;;25.50;80.80;;;;;;5028129;28;20048;-70
2021/06/13 06:57:07;;;;;;;7.38;2.67;;;26.40;71.30;;;;;;5028855;28;20037;-70
2021/06/13 06:59:32;;;;;;;10.05;2.95;;;26.80;68.80;;;;;;5027482;28;20033;-70
2021/06/13 07:01:58;;;;;;;8.80;3.10;;;27.70;65.80;;;;;;5025815;28;20036;-69
2021/06/13 07:04:24;;;;;;;7.97;3.13;;;28.30;62.00;;;;;;5028109;28;20251;-70
2021/06/13 07:06:49;;;;;;;15.60;3.78;;;28.70;58.70;;;;;;5027713;28;20391;-70
2021/06/13 07:09:15;;;;;;;9.07;3.58;;;28.90;56.70;;;;;;5026502;28;20063;-69
2021/06/13 07:11:42;;;;;;;8.02;3.47;;;29.30;55.10;;;;;;5027420;28;20068;-69
2021/06/13 07:14:07;;;;;;;9.05;3.53;;;29.10;56.20;;;;;;5027772;28;20436;-70
2021/06/13 07:16:33;;;;;;;10.20;4.00;;;29.50;55.90;;;;;;5027389;28;20025;-70
2021/06/13 07:18:58;;;;;;;12.52;4.35;;;30.10;54.60;;;;;;5027716;28;20533;-70
2021/06/13 07:21:24;;;;;;;8.45;3.60;;;30.10;54.20;;;;;;5027699;28;20078;-70
2021/06/13 07:23:49;;;;;;;9.10;4.15;;;30.30;53.60;;;;;;5026404;28;20036;-70
2021/06/13 07:26:15;;;;;;;7.30;3.88;;;29.90;54.30;;;;;;5027861;28;20124;-70
2021/06/13 07:28:40;;;;;;;10.02;3.90;;;30.50;53.10;;;;;;5027913;28;20455;-70
2021/06/13 07:31:06;;;;;;;12.40;3.78;;;30.70;52.50;;;;;;5026238;28;20048;-70
2021/06/13 07:33:32;;;;;;;8.85;3.45;;;31.00;50.60;;;;;;5027780;28;20033;-69
2021/06/13 07:35:58;;;;;;;6.60;3.40;;;31.30;50.40;;;;;;5027772;28;20033;-70
2021/06/13 07:38:24;;;;;;;9.68;3.70;;;31.00;49.80;;;;;;5027769;28;20567;-69
2021/06/13 07:40:50;;;;;;;7.97;3.00;;;31.70;49.30;;;;;;5026904;28;20037;-70
2021/06/13 07:43:16;;;;;;;12.88;3.70;;;31.50;48.70;;;;;;5028184;28;20021;-70
2021/06/13 07:45:42;;;;;;;7.18;3.35;;;31.90;46.60;;;;;;5027752;28;20156;-69
2021/06/13 07:48:09;;;;;;;7.65;3.58;;;31.70;47.60;;;;;;5018260;28;20041;-70
2021/06/13 07:50:37;;;;;;;9.20;3.50;;;32.00;46.40;;;;;;5020848;28;20037;-70
2021/06/13 07:53:02;;;;;;;5.90;2.83;;;32.10;45.80;;;;;;5026117;28;20029;-70
2021/06/13 07:55:28;;;;;;;7.55;3.00;;;32.10;43.30;;;;;;5026161;28;20481;-70
2021/06/13 07:57:54;;;;;;;7.28;3.00;;;31.70;42.90;;;;;;5026608;28;20037;-70
2021/06/13 08:00:22;;;;;;;7.50;2.97;;;31.80;43.40;;;;;;5025495;28;20034;-69
2021/06/13 08:02:48;;;;;;;5.20;2.45;;;31.80;43.10;;;;;;5022538;28;20478;-69
2021/06/13 08:05:16;;;;;;;4.53;2.83;;;31.70;43.20;;;;;;5023089;28;20040;-69
2021/06/13 08:07:41;;;;;;;6.95;2.90;;;32.20;42.90;;;;;;5019403;28;20105;-70
2021/06/13 08:10:09;;;;;;;6.25;2.97;;;32.50;41.20;;;;;;5021750;28;20132;-69
2021/06/13 08:12:38;;;;;;;8.10;3.90;;;31.80;42.80;;;;;;5013973;28;20037;-70
2021/06/13 08:15:04;;;;;;;7.15;3.17;;;32.20;42.80;;;;;;5016908;28;20136;-70
2021/06/13 08:17:29;;;;;;;5.78;2.85;;;32.40;42.80;;;;;;5016048;28;20096;-69
2021/06/13 08:19:55;;;;;;;8.52;3.80;;;32.40;42.30;;;;;;5017557;28;20433;-70
2021/06/13 08:22:20;;;;;;;6.88;3.08;;;32.50;43.00;;;;;;5015953;28;20025;-70
2021/06/13 08:24:46;;;;;;;5.40;3.38;;;32.50;43.70;;;;;;5012583;28;20463;-70
2021/06/13 08:27:11;;;;;;;5.90;3.45;;;32.60;42.00;;;;;;5022423;28;20034;-70
2021/06/13 08:29:39;;;;;;;6.88;3.45;;;32.80;42.30;;;;;;5016390;28;20116;-69
2021/06/13 08:32:05;;;;;;;7.45;3.75;;;32.60;41.90;;;;;;5023943;28;20373;-70
2021/06/13 08:34:30;;;;;;;10.05;3.60;;;31.90;43.20;;;;;;5024522;28;20034;-69
2021/06/13 08:36:56;;;;;;;9.00;3.38;;;32.10;42.30;;;;;;5024884;28;20080;-70
2021/06/13 08:39:21;;;;;;;6.05;3.13;;;32.10;43.00;;;;;;5024977;28;20025;-70
2021/06/13 08:41:47;;;;;;;11.77;3.65;;;31.50;41.80;;;;;;5025030;28;20072;-70
2021/06/13 08:44:13;;;;;;;5.72;3.38;;;31.30;42.60;;;;;;5020294;28;20041;-69
2021/06/13 08:46:39;;;;;;;8.43;3.72;;;30.70;41.50;;;;;;5024659;28;20037;-69
2021/06/13 08:49:05;;;;;;;9.93;3.03;;;30.40;43.00;;;;;;5025114;28;20053;-69
2021/06/13 08:51:31;;;;;;;5.13;2.40;;;30.20;44.40;;;;;;5025420;28;20029;-69
2021/06/13 08:53:57;;;;;;;5.85;3.17;;;30.30;44.20;;;;;;5025499;28;20029;-69
2021/06/13 08:56:23;;;;;;;7.75;3.05;;;30.20;43.70;;;;;;5023495;28;20060;-69
2021/06/13 08:58:50;;;;;;;6.55;3.22;;;30.30;43.10;;;;;;5025159;28;20033;-69
2021/06/13 09:01:16;;;;;;;7.35;2.92;;;30.20;43.20;;;;;;5021191;28;20059;-70
2021/06/13 09:03:43;;;;;;;5.53;2.20;;;29.70;43.60;;;;;;5022292;28;20501;-69
2021/06/13 09:06:09;;;;;;;5.75;1.95;;;29.40;43.70;;;;;;5020510;28;20045;-70
2021/06/13 09:08:37;;;;;;;4.32;2.08;;;28.90;43.50;;;;;;5020227;28;20404;-69
2021/06/13 09:11:04;;;;;;;6.22;2.75;;;28.80;43.90;;;;;;5020478;28;20034;-69
2021/06/13 09:13:30;;;;;;;6.03;2.10;;;28.50;44.60;;;;;;5014642;28;20073;-70
2021/06/13 09:16:01;;;;;;;4.30;1.77;;;28.20;45.20;;;;;;5016645;28;20468;-69
2021/06/13 09:18:28;;;;;;;5.18;1.65;;;27.90;45.50;;;;;;5013934;28;20030;-69
2021/06/13 09:20:54;;;;;;;3.97;1.80;;;27.60;45.30;;;;;;5015014;28;20145;-69
2021/06/13 09:23:20;;;;;;;4.07;0.98;;;27.50;45.60;;;;;;5020392;28;20456;-69
2021/06/13 09:25:46;;;;;;;4.13;1.10;;;27.30;46.50;;;;;;5029693;28;20057;-69
2021/06/13 09:28:17;;;;;;;5.93;1.20;;;26.80;45.10;;;;;;5023092;28;20116;-70
2021/06/13 09:30:46;;;;;;;4.82;1.20;;;26.60;46.20;;;;;;5025032;28;20033;-69
2021/06/13 09:33:27;;;;;;;2.95;1.48;;;26.40;46.90;;;;;;5025011;28;20041;-70
2021/06/13 09:35:55;;;;;;;3.38;1.50;;;26.10;46.40;;;;;;5023594;28;20041;-69
2021/06/13 09:38:24;;;;;;;4.45;1.95;;;25.70;46.90;;;;;;5025446;28;20508;-69
2021/06/13 09:41:02;;;;;;;4.00;1.02;;;25.50;49.40;;;;;;5022781;28;20140;-69
2021/06/13 09:43:47;;;;;;;4.47;1.20;;;25.30;50.00;;;;;;5025484;28;20041;-69
2021/06/13 09:46:16;;;;;;;3.63;1.55;;;25.20;50.00;;;;;;5021889;28;20175;-71
2021/06/13 09:48:44;;;;;;;3.03;1.70;;;25.10;51.20;;;;;;5026079;28;20040;-68
2021/06/13 09:51:20;;;;;;;6.57;1.65;;;25.00;52.10;;;;;;5025459;28;20034;-69
2021/06/13 09:53:49;;;;;;;5.30;1.23;;;25.00;51.80;;;;;;5022598;28;20033;-69
2021/06/13 09:56:26;;;;;;;4.00;1.45;;;25.00;53.70;;;;;;5024100;28;20037;-69
2021/06/13 09:59:00;;;;;;;4.47;1.80;;;25.00;53.00;;;;;;5028868;28;20044;-69
2021/06/13 10:01:30;;;;;;;3.45;1.67;;;25.00;53.60;;;;;;5029355;28;20048;-68
2021/06/13 10:03:57;;;;;;;6.75;1.65;;;25.00;52.40;;;;;;5029520;28;20048;-69
2021/06/13 10:06:27;;;;;;;3.47;1.35;;;24.70;52.60;;;;;;5029142;28;20033;-68
2021/06/13 10:08:55;;;;;;;5.80;1.80;;;24.70;53.20;;;;;;5029131;28;20040;-69
2021/06/13 10:11:21;;;;;;;7.63;2.22;;;24.70;53.30;;;;;;5029502;28;20164;-68
2021/06/13 10:13:48;;;;;;;5.63;1.98;;;24.70;54.70;;;;;;5028971;28;20061;-69
2021/06/13 10:16:35;;;;;;;4.45;1.23;;;24.70;53.90;;;;;;5029933;28;20037;-67
2021/06/13 10:19:06;;;;;;;7.63;1.80;;;24.80;54.00;;;;;;5030406;28;20037;-68
2021/06/13 10:21:41;;;;;;;5.43;1.73;;;24.80;54.00;;;;;;5031835;28;20159;-67
2021/06/13 10:24:10;;;;;;;3.80;1.60;;;24.60;53.50;;;;;;5033241;28;20037;-68
2021/06/13 10:26:38;;;;;;;5.60;2.08;;;24.60;53.60;;;;;;5028507;28;20098;-68
2021/06/13 10:29:04;;;;;;;5.50;1.85;;;24.50;54.40;;;;;;5030931;28;20041;-68
2021/06/13 10:31:31;;;;;;;3.22;1.48;;;24.50;54.60;;;;;;5032776;28;20045;-68
2021/06/13 10:33:57;;;;;;;3.67;1.52;;;24.70;54.70;;;;;;5034869;28;20068;-67
2021/06/13 10:36:23;;;;;;;7.45;1.80;;;24.70;54.70;;;;;;5035824;28;20056;-68
2021/06/13 10:38:49;;;;;;;6.00;2.15;;;24.70;55.20;;;;;;5035705;28;20790;-68
2021/06/13 10:41:15;;;;;;;6.00;1.90;;;24.70;55.30;;;;;;5035936;28;20044;-68
2021/06/13 10:43:41;;;;;;;6.25;1.95;;;24.80;55.20;;;;;;5036327;28;20034;-67
2021/06/13 10:46:16;;;;;;;6.90;1.85;;;24.90;54.70;;;;;;5035749;28;20375;-68
2021/06/13 10:48:53;;;;;;;4.30;1.48;;;24.90;56.20;;;;;;5026729;28;20108;-67
2021/06/13 10:51:45;;;;;;;5.68;1.92;;;25.00;55.70;;;;;;5051804;28;20095;-67
2021/06/13 10:54:26;;;;;;;5.78;1.42;;;25.00;54.00;;;;;;5035761;28;20420;-68
2021/06/13 10:57:12;;;;;;;3.60;1.70;;;25.00;55.00;;;;;;5023678;28;20429;-68
2021/06/13 10:59:42;;;;;;;8.57;1.88;;;25.00;55.80;;;;;;5029634;28;20056;-67
2021/06/13 11:02:09;;;;;;;;;;;25.00;55.50;;;;;;5026705;28;20041;-67
2021/06/13 11:04:40;;;;;;;8.23;1.90;;;24.80;55.30;;;;;;5028048;28;19913;-67
2021/06/13 11:07:06;;;;;;;4.70;1.75;;;24.80;55.70;;;;;;5026339;28;20037;-67
2021/06/13 11:09:31;;;;;;;6.20;1.67;;;24.60;55.60;;;;;;5027234;28;20157;-67
2021/06/13 11:11:57;;;;;;;6.28;2.00;;;24.40;56.00;;;;;;5028196;28;20034;-67
2021/06/13 11:14:26;;;;;;;10.15;2.58;;;24.20;56.80;;;;;;5033063;28;20061;-67
2021/06/13 11:16:52;;;;;;;5.22;1.52;;;24.20;57.40;;;;;;5031540;28;20091;-68
2021/06/13 11:19:30;;;;;;;7.88;1.92;;;24.20;57.20;;;;;;5031440;28;20049;-69
2021/06/13 11:22:17;;;;;;;6.28;2.10;;;24.20;56.60;;;;;;5031046;28;20030;-67
2021/06/13 11:24:52;;;;;;;5.25;1.48;;;24.40;56.00;;;;;;5028903;28;20037;-68
2021/06/13 11:27:18;;;;;;;3.88;1.60;;;24.40;57.40;;;;;;5031204;28;20037;-68
2021/06/13 11:29:51;;;;;;;8.10;1.65;;;24.50;57.30;;;;;;5031126;28;20029;-68
2021/06/13 11:32:37;;;;;;;6.65;1.73;;;24.60;56.40;;;;;;5033276;28;20099;-67
2021/06/13 11:35:29;;;;;;;11.32;2.85;;;24.70;56.00;;;;;;5031618;28;20029;-68
2021/06/13 11:38:09;;;;;;;3.92;1.20;;;24.70;56.50;;;;;;5028410;28;20398;-68
2021/06/13 11:40:36;;;;;;;6.57;1.90;;;24.70;55.80;;;;;;5029003;28;20045;-68
2021/06/13 11:43:14;;;;;;;5.03;1.52;;;24.60;56.40;;;;;;5026513;28;20049;-67
2021/06/13 11:45:52;;;;;;;6.68;2.13;;;24.60;55.60;;;;;;5029518;28;20034;-67
2021/06/13 11:48:19;;;;;;;9.88;2.22;;;24.50;56.00;;;;;;5030726;28;20033;-68
2021/06/13 11:50:58;;;;;;;7.65;1.60;;;24.50;55.20;;;;;;5027150;28;20038;-68
2021/06/13 11:53:48;;;;;;;6.43;2.22;;;24.60;57.00;;;;;;5029498;28;20497;-67
2021/06/13 11:56:36;;;;;;;6.75;2.47;;;24.70;56.80;;;;;;5027865;28;20072;-66
2021/06/13 11:59:05;;;;;;;5.20;1.75;;;24.70;57.00;;;;;;5023946;28;20033;-68
2021/06/13 12:01:35;;;;;;;5.72;1.92;;;24.60;57.30;;;;;;5029871;28;20100;-68
2021/06/13 12:04:04;;;;;;;5.53;1.92;;;24.50;57.40;;;;;;5031324;28;20037;-68
2021/06/13 12:06:35;;;;;;;11.40;2.28;;;24.40;58.10;;;;;;5027006;28;20029;-67
2021/06/13 12:09:04;;;;;;;;;;;24.40;57.60;;;;;;5030083;28;20037;-67
2021/06/13 12:11:42;;;;;;;7.93;2.05;;;24.40;58.00;;;;;;5029720;28;19960;-68
2021/06/13 12:14:36;;;;;;;5.25;1.85;;;24.40;57.30;;;;;;5027999;28;20048;-68
2021/06/13 12:17:16;;;;;;;5.35;1.65;;;24.30;57.70;;;;;;5029715;28;20099;-67
2021/06/13 12:19:54;;;;;;;14.00;1.88;;;24.20;58.30;;;;;;5027335;28;20048;-68
2021/06/13 12:27:37;;;;;;;4.97;1.75;;;24.10;56.20;;;;;;5033157;28;20052;-67
2021/06/13 12:30:12;;;;;;;3.95;1.50;;;24.00;57.60;;;;;;5031023;28;20179;-67
2021/06/13 12:32:38;;;;;;;6.28;1.73;;;24.00;59.70;;;;;;5042522;28;20065;-67
2021/06/13 12:35:05;;;;;;;4.72;1.63;;;24.20;59.60;;;;;;5030612;28;20033;-67
2021/06/13 12:37:31;;;;;;;11.60;1.83;;;24.20;58.00;;;;;;5029560;28;20121;-67
2021/06/13 12:40:01;;;;;;;3.45;1.40;;;24.40;59.40;;;;;;5029680;28;20057;-67
2021/06/13 12:42:28;;;;;;;4.03;1.60;;;24.50;58.40;;;;;;5028956;28;20136;-67
2021/06/13 12:45:09;;;;;;;7.30;2.08;;;24.50;58.20;;;;;;5030168;28;20548;-67
2021/06/13 12:47:36;;;;;;;7.28;1.98;;;24.50;58.40;;;;;;5030764;28;20029;-67
2021/06/13 12:50:03;;;;;;;5.40;1.98;;;24.50;57.30;;;;;;5030408;28;20029;-68
2021/06/13 12:52:29;;;;;;;7.18;2.00;;;24.40;57.80;;;;;;5029794;28;20030;-66
2021/06/13 12:54:59;;;;;;;6.40;1.20;;;24.40;57.30;;;;;;5031825;28;20048;-66
2021/06/13 12:57:26;;;;;;;;;;;24.20;56.90;;;;;;5033138;28;20065;-69